Home > Products > Valid Products > TAF

000
FTUS46 KSEW 012100 AAA
TAFSEA
TAF AMD
KSEA 012101Z 0121/0224 32006KT P6SM VCTS FEW080CB BKN130 OVC200
     FM012300 32007KT P6SM SCT120 SCT200
     FM020400 02008KT P6SM SCT150=



000
FTUS46 KSEW 011700
TAFBLI
TAF
KBLI 011729Z 0118/0218 21005KT P6SM SCT150 SCT250
     FM012000 21004KT P6SM SCT150 BKN250
     FM020000 21007KT P6SM SCT080 BKN150
     FM020600 21005KT P6SM SCT150=



000
FTUS46 KSEW 011700
TAFPAE
TAF
KPAE 011729Z 0118/0218 36004KT P6SM SCT150 BKN250
     FM012100 33008KT P6SM VCTS SCT080CB BKN150
     FM020400 02006KT P6SM SCT150=



000
FTUS46 KSEW 011700
TAFSEA
TAF
KSEA 011729Z 0118/0224 25005KT P6SM SCT150 BKN250
     FM012100 33008KT P6SM VCTS SCT080CB BKN150
     FM020400 02008KT P6SM SCT150=



000
FTUS46 KSEW 011700
TAFOLM
TAF
KOLM 011729Z 0118/0218 00000KT P6SM BKN150 OVC250
     FM012000 36006KT P6SM VCTS SCT080CB OVC150
     FM020500 00000KT P6SM SCT150=



000
FTUS46 KSEW 011700
TAFBFI
TAF
KBFI 011729Z 0118/0218 00000KT P6SM SCT150 BKN250
     FM012100 33006KT P6SM VCTS SCT080CB BKN150
     FM020400 36005KT P6SM SCT150=



000
FTUS46 KSEW 011700
TAFHQM
TAF
KHQM 011729Z 0118/0218 00000KT 4SM BR SCT006
     FM012000 28008KT P6SM SCT200
     FM021000 21005KT 5SM BR SCT005
      TEMPO 0210/0212 2SM BR BKN002=



000
FTUS46 KSEW 011700
TAFCLM
TAF
KCLM 011729Z 0118/0218 27003KT P6SM SCT150 SCT250
     FM012000 28004KT P6SM SCT150 BKN250
     FM020000 28012KT P6SM SCT080 BKN150
     FM020600 28005KT P6SM SCT150=



000
FTUS46 KSEW 011500 AAA
TAFSEA
TAF AMD
KSEA 011500Z 0115/0218 04006KT P6SM FEW150 BKN250
     FM011700 VRB04KT P6SM VCTS BKN080CB OVC150
     FM012100 33008KT P6SM SCT080 BKN150
     FM020400 02008KT P6SM SCT150=



000
FTUS46 KSEW 011300 AAA
TAFHQM
TAF AMD
KHQM 011318Z 0113/0212 VRB03KT P6SM SCT120 BKN250
      TEMPO 0113/0116 3SM BR
     FM012000 28008KT P6SM SCT200
     FM021000 21005KT 5SM BR SCT005
      TEMPO 0210/0212 2SM BR BKN002=



000
FTUS46 KSEW 011100
TAFHQM
TAF
KHQM 011120Z 0112/0212 VRB03KT P6SM SCT120 BKN250
     FM012000 28008KT P6SM SCT200
     FM021000 21005KT 5SM BR SCT005
      TEMPO 0210/0212 2SM BR BKN002=



000
FTUS46 KSEW 011100
TAFCLM
TAF
KCLM 011120Z 0112/0212 28005KT P6SM BKN200
     FM011900 VRB04KT P6SM BKN120 BKN200
     FM020000 28012KT P6SM SCT080 BKN150
     FM020600 28005KT P6SM SCT150=



000
FTUS46 KSEW 011100
TAFPAE
TAF
KPAE 011120Z 0112/0212 VRB04KT P6SM BKN120 OVC200
     FM011700 VRB04KT P6SM VCTS BKN080CB OVC150
     FM012100 33008KT P6SM SCT080 BKN150
     FM020400 02006KT P6SM SCT150=



000
FTUS46 KSEW 011100
TAFOLM
TAF
KOLM 011120Z 0112/0212 VRB04KT P6SM BKN120 OVC200
     FM011500 VRB04KT P6SM VCTS BKN080CB OVC150
     FM012000 36006KT P6SM SCT080 BKN150
     FM020400 00000KT P6SM SCT150=



000
FTUS46 KSEW 011100
TAFSEA
TAF
KSEA 011120Z 0112/0218 VRB04KT P6SM BKN120 OVC200
     FM011700 VRB04KT P6SM VCTS BKN080CB OVC150
     FM012100 33008KT P6SM SCT080 BKN150
     FM020400 02008KT P6SM SCT150=



000
FTUS46 KSEW 011100
TAFBLI
TAF
KBLI 011120Z 0112/0212 18005KT P6SM BKN200
     FM011900 VRB04KT P6SM BKN120 BKN200
     FM020000 21007KT P6SM SCT080 BKN150
     FM020600 21005KT P6SM SCT150=



000
FTUS46 KSEW 011100
TAFBFI
TAF
KBFI 011120Z 0112/0212 VRB04KT P6SM BKN120 OVC200
     FM011700 VRB04KT P6SM VCTS BKN080CB OVC150
     FM012100 33006KT P6SM SCT080 BKN150
     FM020400 36005KT P6SM SCT150=



000
FTUS46 KSEW 010900 AAA
TAFSEA
TAF AMD
KSEA 010904Z 0109/0212 VRB04KT P6SM SCT120 BKN200
     FM011700 VRB04KT P6SM VCTS BKN080CB BKN150
     FM012100 33008KT P6SM SCT080 BKN150
     FM020400 02008KT P6SM SCT150=



000
FTUS46 KSEW 010500
TAFSEA
TAF
KSEA 010520Z 0106/0212 04006KT P6SM SKC
     FM011200 VRB04KT P6SM BKN150 PROB30 0116/0120 TS BKN090CB
     FM012000 33008KT P6SM BKN120
     FM020400 02008KT P6SM SCT150=



000
FTUS46 KSEW 010500
TAFCLM
TAF
KCLM 010520Z 0106/0206 29012KT P6SM SKC
     FM011200 27006KT P6SM SCT250
     FM012000 30012KT P6SM SCT120 BKN200=



000
FTUS46 KSEW 010500
TAFOLM
TAF
KOLM 010520Z 0106/0206 00000KT P6SM SCT250
     FM011200 VRB04KT P6SM BKN150 PROB30 0115/0119 TS BKN090CB
     FM011900 01005KT P6SM BKN150=



000
FTUS46 KSEW 010500
TAFBFI
TAF
KBFI 010520Z 0106/0206 04004KT P6SM SKC
     FM011200 VRB04KT P6SM BKN150 PROB30 0116/0120 TS BKN090CB
     FM012000 31006KT P6SM BKN120
     FM020400 34008KT P6SM SCT150=



000
FTUS46 KSEW 010500
TAFBLI
TAF
KBLI 010520Z 0106/0206 VRB03KT P6SM SKC
     FM011500 18006KT P6SM SCT150
     FM012000 24005KT P6SM BKN150=



000
FTUS46 KSEW 010500
TAFPAE
TAF
KPAE 010520Z 0106/0206 01006KT P6SM SKC
     FM011200 VRB04KT P6SM BKN150 PROB30 0116/0120 TS BKN090CB
     FM012000 33008KT P6SM BKN120
     FM020400 36008KT P6SM SCT150=



000
FTUS46 KSEW 010500
TAFHQM
TAF
KHQM 010520Z 0106/0206 24006KT P6SM SKC
     FM011200 22006KT 5SM BR SCT002
      TEMPO 0112/0116 2SM BR BKN002
     FM011700 25012KT P6SM SCT010=



000
FTUS46 KSEW 312300
TAFBLI
TAF
KBLI 312320Z 0100/0124 VRB04KT P6SM FEW250
     FM010400 18005KT P6SM SCT250
     FM011500 18006KT P6SM SCT120
     FM012000 24005KT P6SM SCT120=



000
FTUS46 KSEW 312300
TAFCLM
TAF
KCLM 312320Z 0100/0124 30009KT P6SM FEW250
     FM010200 29012KT P6SM SCT250
     FM010800 27006KT P6SM SCT250
     FM012000 30009KT P6SM SCT120 SCT250=



000
FTUS46 KSEW 312300
TAFBFI
TAF
KBFI 312320Z 0100/0124 32011G15KT P6SM SCT250
     FM010400 VRB03KT P6SM SCT250
     FM011300 00000KT P6SM BKN120 PROB30 0115/0119 TS BKN120CB
     FM011900 32008KT P6SM SCT120=



000
FTUS46 KSEW 312300
TAFPAE
TAF
KPAE 312320Z 0100/0124 35007KT P6SM SCT250
     FM010400 01004KT P6SM SCT250
     FM011300 VRB03KT P6SM BKN120 PROB30 0115/0119 TS BKN120CB
     FM011900 32006KT P6SM SCT120=



000
FTUS46 KSEW 312300
TAFHQM
TAF
KHQM 312320Z 0100/0124 24009KT P6SM SCT250
     FM010600 24008KT 5SM BR BKN005
     FM011000 22006KT 3SM BR OVC003
     FM012000 25012KT 6SM BR SCT010=



000
FTUS46 KSEW 312300
TAFSEA
TAF
KSEA 312320Z 0100/0206 33010KT P6SM FEW250
     FM010400 01008KT P6SM SCT250
     FM011300 02006KT P6SM BKN120 PROB30 0115/0119 TS BKN120CB
     FM011900 30008KT P6SM SCT120=



000
FTUS46 KSEW 312300
TAFOLM
TAF
KOLM 312320Z 0100/0124 05009KT P6SM SKC
     FM010300 00000KT P6SM SCT250
     FM011400 VRB03KT P6SM BKN120 PROB30 0114/0118 TS BKN120CB
     FM011800 01005KT P6SM SCT120=



000
FTUS46 KSEW 312100 AAA
TAFSEA
TAF AMD
KSEA 312102Z 3121/0124 31006KT P6SM FEW200
     FM010400 01008KT P6SM SCT250
     FM011300 02006KT P6SM BKN120 PROB30 0115/0119 TS BKN120CB
     FM011900 30008KT P6SM SCT120=



000
FTUS46 KSEW 311700
TAFPAE
TAF
KPAE 311735Z 3118/0118 34007KT P6SM FEW200
     FM010400 01004KT P6SM SCT250
     FM011300 VRB03KT P6SM SCT120=



000
FTUS46 KSEW 311700
TAFHQM
TAF
KHQM 311735Z 3118/0118 20004KT P6SM SKC
     FM312100 25010KT P6SM SCT250
     FM010600 24008KT 5SM BR BKN005
     FM011000 22006KT 3SM BR OVC003=



000
FTUS46 KSEW 311700
TAFSEA
TAF
KSEA 311735Z 3118/0124 34009KT P6SM FEW200
     FM010400 01008KT P6SM SCT250
     FM011300 02006KT P6SM SCT120
     FM011900 30008KT P6SM SCT120=



000
FTUS46 KSEW 311700
TAFBLI
TAF
KBLI 311735Z 3118/0118 00000KT P6SM SKC
     FM312000 22006KT P6SM SCT250
     FM010400 18005KT P6SM SCT250
     FM011500 18006KT P6SM SCT120=



000
FTUS46 KSEW 311700
TAFOLM
TAF
KOLM 311735Z 3118/0118 02007KT P6SM SCT250
     FM010300 00000KT P6SM SCT250
     FM011400 VRB03KT P6SM SCT120=



000
FTUS46 KSEW 311700
TAFCLM
TAF
KCLM 311735Z 3118/0118 36003KT P6SM SKC
     FM312000 30010KT P6SM SCT250
     FM010200 29012KT P6SM SCT250
     FM010800 27006KT P6SM SCT250=



000
FTUS46 KSEW 311700
TAFBFI
TAF
KBFI 311735Z 3118/0118 31006KT P6SM FEW200
     FM010400 VRB03KT P6SM SCT250
     FM011300 00000KT P6SM SCT120=



000
FTUS46 KSEW 311500 AAA
TAFSEA
TAF AMD
KSEA 311503Z 3115/0118 02007KT P6SM FEW200
     FM312000 32008KT P6SM SCT250=



000
FTUS46 KSEW 311100
TAFSEA
TAF
KSEA 311120Z 3112/0118 02008KT P6SM FEW250
     FM312000 32008KT P6SM SCT250=



000
FTUS46 KSEW 311100
TAFHQM
TAF
KHQM 311120Z 3112/0112 20004KT P6SM SKC
      TEMPO 3112/3116 3SM BR SCT003
     FM312100 25010KT P6SM SCT250
     FM010600 24008KT 5SM BR BKN005
     FM011000 24005KT 3SM BR OVC003=



000
FTUS46 KSEW 311100
TAFCLM
TAF
KCLM 311120Z 3112/0112 00000KT P6SM SKC
     FM312000 30010KT P6SM SCT250=



000
FTUS46 KSEW 311100
TAFPAE
TAF
KPAE 311120Z 3112/0112 04004KT P6SM FEW250
     FM312000 34007KT P6SM SCT250=



000
FTUS46 KSEW 311100
TAFOLM
TAF
KOLM 311120Z 3112/0112 00000KT P6SM SKC
     FM312000 02007KT P6SM SCT250=



000
FTUS46 KSEW 311100
TAFBLI
TAF
KBLI 311120Z 3112/0112 21005KT P6SM SKC=



000
FTUS46 KSEW 311100
TAFBFI
TAF
KBFI 311120Z 3112/0112 00000KT P6SM FEW250
     FM312000 30008KT P6SM SCT250=



000
FTUS46 KSEW 310500
TAFPAE
TAF
KPAE 310520Z 3106/0106 02007KT P6SM FEW250
     FM312000 34007KT P6SM SCT250=



000
FTUS46 KSEW 310500
TAFBFI
TAF
KBFI 310520Z 3106/0106 VRB04KT P6SM FEW250
     FM312000 30008KT P6SM SCT250=



000
FTUS46 KSEW 310500
TAFOLM
TAF
KOLM 310520Z 3106/0106 VRB03KT P6SM SKC
     FM312000 02007KT P6SM SCT250=



000
FTUS46 KSEW 310500
TAFHQM
TAF
KHQM 310520Z 3106/0106 23006KT P6SM SKC
      TEMPO 3112/3116 3SM BR SCT003
     FM312100 25010KT P6SM SCT250=



000
FTUS46 KSEW 310500
TAFBLI
TAF
KBLI 310520Z 3106/0106 18008KT P6SM FEW250=



000
FTUS46 KSEW 310500
TAFSEA
TAF
KSEA 310520Z 3106/0112 04006KT P6SM FEW250
     FM312000 32008KT P6SM SCT250=



000
FTUS46 KSEW 310500
TAFCLM
TAF
KCLM 310520Z 3106/0106 27012KT P6SM SKC
     FM310800 27007KT P6SM SKC
     FM312000 30010KT P6SM SCT250=



000
FTUS46 KSEW 302300
TAFOLM
TAF
KOLM 302320Z 3100/3124 33007KT P6SM SKC
     FM310400 00000KT P6SM SKC
     FM311200 00000KT 2SM BR SKC
     FM311600 VRB03KT P6SM SKC
     FM312000 02007KT P6SM SKC=



000
FTUS46 KSEW 302300
TAFHQM
TAF
KHQM 302320Z 3100/3124 25011KT 6SM HZ SKC
     FM310400 27005KT P6SM SKC
     FM311100 22004KT 5SM BR BKN005
     FM311800 24007KT P6SM SKC
     FM312100 25011KT P6SM SKC=



000
FTUS46 KSEW 302300
TAFBLI
TAF
KBLI 302320Z 3100/3124 18004KT P6SM SKC=



000
FTUS46 KSEW 302300
TAFBFI
TAF
KBFI 302320Z 3100/3124 30009G14KT P6SM SKC
     FM310300 VRB02KT P6SM SKC
     FM312000 30008KT P6SM SKC=



000
FTUS46 KSEW 302300
TAFPAE
TAF
KPAE 302320Z 3100/3124 35007KT P6SM SKC
     FM310400 01004KT P6SM SKC
     FM312000 34007KT P6SM SKC=



000
FTUS46 KSEW 302300
TAFCLM
TAF
KCLM 302320Z 3100/3124 31011KT P6SM SKC
     FM310200 29014KT P6SM SKC
     FM310800 29005KT P6SM SKC
     FM312000 30009KT P6SM SKC=



000
FTUS46 KSEW 302300
TAFSEA
TAF
KSEA 302320Z 3100/0106 02010KT P6SM SCT250
     FM310400 02007KT P6SM SKC
     FM311000 03004KT P6SM SKC
     FM312000 32009KT P6SM SKC=



000
FTUS46 KSEW 302100 AAA
TAFSEA
TAF AMD
KSEA 302100Z 3021/3124 35011KT P6SM SCT250
     FM310400 02007KT P6SM SKC
     FM311000 03004KT P6SM SKC
     FM312000 32009KT P6SM SKC=



000
FTUS46 KSEW 301700
TAFCLM
TAF
KCLM 301720Z 3018/3118 VRB05KT P6SM VCFG FEW001
     FM302000 32008KT P6SM SKC
     FM310200 29014KT P6SM SKC
     FM310800 30005KT P6SM SKC=



000
FTUS46 KSEW 301700
TAFSEA
TAF
KSEA 301720Z 3018/3124 VRB03KT P6SM SKC
     FM302000 33008KT P6SM SKC
     FM310400 02007KT P6SM SKC
     FM311000 03004KT P6SM SKC
     FM312000 32009KT P6SM SKC=



000
FTUS46 KSEW 301700
TAFHQM
TAF
KHQM 301720Z 3018/3118 19006KT 6SM HZ SKC
     FM302000 25012KT P6SM SKC
     FM310000 27010KT P6SM SKC
     FM310400 27005KT P6SM SKC
     FM311100 22004KT 5SM BR BKN005=



000
FTUS46 KSEW 301700
TAFBLI
TAF
KBLI 301720Z 3018/3118 19005KT P6SM SKC
     FM302000 21005KT P6SM SKC
     FM310300 18004KT P6SM SKC=



000
FTUS46 KSEW 301700
TAFOLM
TAF
KOLM 301720Z 3018/3118 00000KT 6SM HZ SCT012
     FM301900 36006KT P6SM SKC
     FM310400 00000KT P6SM SKC
     FM311200 00000KT 2SM BR SKC
     FM311600 VRB03KT P6SM SKC=



000
FTUS46 KSEW 301700
TAFBFI
TAF
KBFI 301720Z 3018/3118 VRB03KT P6SM SKC
     FM302000 30008KT P6SM SKC
     FM310300 VRB02KT P6SM SKC=



000
FTUS46 KSEW 301700
TAFPAE
TAF
KPAE 301720Z 3018/3118 01005KT P6SM SKC
     FM302000 32008KT P6SM SKC
     FM310400 01004KT P6SM SKC=



000
FTUS46 KSEW 301500 AAA
TAFCLM
TAF AMD
KCLM 301546Z 3016/3112 29006KT P6SM BKN004
     FM301730 32005KT P6SM SCT010
     FM302000 32008KT P6SM SKC
     FM310200 29014KT P6SM SKC
     FM310800 30005KT P6SM SKC=



000
FTUS46 KSEW 301400 AAA
TAFSEA
TAF AMD
KSEA 301440Z 3015/3118 20003KT P6SM FEW001
      TEMPO 3015/3017 1SM BR BKN001
     FM302000 33008KT P6SM SKC=



000
FTUS46 KSEW 301400 AAB
TAFOLM
TAF AMD
KOLM 301435Z 3015/3112 21003KT 2SM BR OVC002
     FM301700 VRB03KT P6SM SCT010
     FM301900 36006KT P6SM SKC=



000
FTUS46 KSEW 301400 AAA
TAFHQM
TAF AMD
KHQM 301435Z 3015/3112 00000KT 5SM BR SKC
     FM301700 26010KT P6SM SKC
     FM301900 30012KT P6SM SKC
     FM310500 27007KT 5SM BR BKN005=



000
FTUS46 KSEW 301300 AAA
TAFOLM
TAF AMD
KOLM 301301Z 3013/3112 VRB03KT 1/4SM FG VV002
     FM301600 VRB03KT 2SM BR BKN002
     FM301700 36006KT P6SM SKC=



000
FTUS46 KSEW 301100
TAFSEA
TAF
KSEA 301120Z 3012/3118 VRB03KT P6SM SKC
     FM302000 33008KT P6SM SKC=



000
FTUS46 KSEW 301100
TAFBLI
TAF
KBLI 301120Z 3012/3112 18008KT P6SM SKC=



000
FTUS46 KSEW 301100
TAFCLM
TAF
KCLM 301120Z 3012/3112 31007KT P6SM SKC=



000
FTUS46 KSEW 301100
TAFBFI
TAF
KBFI 301120Z 3012/3112 VRB03KT P6SM SKC
     FM302000 30008KT P6SM SKC=



000
FTUS46 KSEW 301100
TAFHQM
TAF
KHQM 301120Z 3012/3112 25005KT 5SM BR OVC004
     FM301700 26010KT P6SM BKN008
     FM301900 30012KT P6SM SKC
     FM310500 27007KT 5SM BR BKN005=



000
FTUS46 KSEW 301100
TAFPAE
TAF
KPAE 301120Z 3012/3112 04004KT P6SM SKC
     FM302000 32008KT P6SM SKC=



000
FTUS46 KSEW 301100
TAFOLM
TAF
KOLM 301120Z 3012/3112 VRB03KT P6SM SCT007
      TEMPO 3012/3016 5SM BR BKN005
     FM301700 36006KT P6SM SKC=



000
FTUS46 KSEW 300800 AAA
TAFHQM
TAF AMD
KHQM 300801Z 3008/3106 25005KT 5SM BR OVC004
     FM301700 26010KT P6SM BKN008
     FM301900 30012KT P6SM SKC
     FM310500 27007KT 5SM BR BKN005=



000
FTUS46 KSEW 300500
TAFSEA
TAF
KSEA 300520Z 3006/3112 04006KT P6SM SKC
     FM301200 VRB03KT P6SM SKC
     FM302000 33008KT P6SM SKC=



000
FTUS46 KSEW 300500
TAFBFI
TAF
KBFI 300520Z 3006/3106 VRB03KT P6SM SKC
     FM302000 30008KT P6SM SKC=



000
FTUS46 KSEW 300500
TAFHQM
TAF
KHQM 300520Z 3006/3106 26007KT 4SM BR OVC004
     FM300800 24004KT 2SM BR OVC002
     FM301700 26010KT P6SM BKN008
     FM301900 30012KT P6SM SKC
     FM310500 27007KT 5SM BR BKN005=



000
FTUS46 KSEW 300500
TAFOLM
TAF
KOLM 300520Z 3006/3106 VRB04KT P6SM SKC
     FM301200 21005KT 4SM BR BKN004
     FM301600 VRB03KT P6SM SCT010
     FM302000 36006KT P6SM SKC=



000
FTUS46 KSEW 300500
TAFCLM
TAF
KCLM 300520Z 3006/3106 30012KT P6SM VCFG SKC
      TEMPO 3009/3012 2SM BR BKN002
     FM301200 28006KT 1SM BR OVC002
     FM301600 32006KT P6SM SCT005
     FM301900 32008KT P6SM SKC=



000
FTUS46 KSEW 300500
TAFPAE
TAF
KPAE 300520Z 3006/3106 02006KT P6SM SKC
      TEMPO 3011/3015 2SM BR SCT002
     FM302000 32008KT P6SM SKC=



000
FTUS46 KSEW 300500
TAFBLI
TAF
KBLI 300520Z 3006/3106 18008KT P6SM SKC=



000
FTUS46 KSEW 300300 AAB
TAFHQM
TAF AMD
KHQM 300358Z 3004/3024 25008KT 5SM BR OVC005
     FM300800 27004KT 2SM BR OVC002
     FM301700 25010KT P6SM BKN008
     FM301900 26014KT P6SM SKC=



000
FTUS46 KSEW 300200 AAA
TAFHQM
TAF AMD
KHQM 300229Z 3002/3024 27012KT P6SM BKN010
     FM300500 27006KT P6SM OVC004
     FM301100 27004KT 2SM BR OVC002
     FM301700 25010KT P6SM BKN008
     FM301900 26014KT P6SM SKC=



000
FTUS46 KSEW 292300
TAFCLM
TAF
KCLM 292326Z 3000/3024 31010KT P6SM SKC
     FM300200 29012G22KT P6SM SKC
     FM300600 27008KT P6SM VCFG SCT002
     FM301200 28006KT 1SM BR OVC002
     FM301700 32006KT P6SM SCT008
     FM301900 32009KT P6SM SKC=



000
FTUS46 KSEW 292300
TAFPAE
TAF
KPAE 292326Z 3000/3024 01006KT P6SM SKC
     FM300600 01004KT P6SM SKC
     FM301100 VRB02KT 1SM BR BKN002
     FM301700 29007KT P6SM SKC
     FM302000 32008KT P6SM SKC=



000
FTUS46 KSEW 292300
TAFOLM
TAF
KOLM 292326Z 3000/3024 35008KT P6SM SKC
     FM300200 VRB02KT P6SM SKC
     FM301200 VRB02KT 6SM BR BKN008
     FM301700 VRB03KT P6SM SCT012
     FM302000 36006KT P6SM SKC=



000
FTUS46 KSEW 292300
TAFSEA
TAF
KSEA 292326Z 3000/3106 36011KT P6SM SKC
     FM300400 03008KT P6SM SKC
     FM301300 VRB03KT P6SM FEW002
     FM301700 31006KT P6SM SKC
     FM302200 33009KT P6SM SKC=



000
FTUS46 KSEW 292300
TAFHQM
TAF
KHQM 292326Z 3000/3024 24012KT P6SM SKC
     FM300400 27006KT P6SM OVC004
     FM301100 27004KT 2SM BR OVC002
     FM301700 25010KT P6SM BKN008
     FM301900 26014KT P6SM SKC=



000
FTUS46 KSEW 292300
TAFBLI
TAF
KBLI 292326Z 3000/3024 18005KT P6SM SKC
     FM300100 20007KT P6SM SKC
     FM300600 18008KT P6SM SKC
     FM302200 22006KT P6SM SKC=



000
FTUS46 KSEW 292300
TAFBFI
TAF
KBFI 292326Z 3000/3024 31008KT P6SM SKC
     FM300300 VRB02KT P6SM SKC
     FM302000 30008KT P6SM SKC=



    US Dept of Commerce
    National Oceanic and Atmospheric Administration
    National Weather Service
    1325 East West Highway
    Silver Spring, MD 20910
    Page Author: NWS Internet Services Team
Disclaimer
Information Quality
Credits
Glossary
Privacy Policy
Freedom of Information Act (FOIA)
About Us
Career Opportunities